createdAt,value
2023-04-28T00:04:47.755Z,4.60
2023-04-28T00:09:51.408Z,4.50
2023-04-28T00:14:54.451Z,4.46
2023-04-28T00:19:57.859Z,4.36
2023-04-28T00:25:21.356Z,4.27
2023-04-28T00:30:25.484Z,4.15
2023-04-28T00:35:28.733Z,4.08
2023-04-28T00:40:39.591Z,4.04
2023-04-28T00:45:42.897Z,4.04
2023-04-28T00:50:48.240Z,4.00
2023-04-28T00:55:56.874Z,3.94
2023-04-28T01:01:08.296Z,3.89
2023-04-28T01:06:12.654Z,3.80
2023-04-28T01:11:16.669Z,3.73
2023-04-28T01:16:33.068Z,3.63
2023-04-28T01:21:36.670Z,3.54
2023-04-28T01:26:55.510Z,3.56
2023-04-28T01:31:58.961Z,3.62
2023-04-28T01:37:02.287Z,3.63
2023-04-28T01:42:06.029Z,3.53
2023-04-28T01:47:09.614Z,3.44
2023-04-28T01:52:12.848Z,3.35
2023-04-28T01:57:17.640Z,3.30
2023-04-28T02:02:21.649Z,3.20
2023-04-28T02:07:25.502Z,3.16
2023-04-28T02:12:28.981Z,3.19
2023-04-28T02:17:42.678Z,3.25
2023-04-28T02:22:48.265Z,3.25
2023-04-28T02:27:51.768Z,3.21
2023-04-28T02:32:54.986Z,3.13
2023-04-28T02:38:23.162Z,3.03
2023-04-28T02:43:27.151Z,2.98
2023-04-28T02:48:31.059Z,2.97
2023-04-28T02:53:34.285Z,3.00
2023-04-28T02:58:37.637Z,2.98
2023-04-28T03:03:41.106Z,2.92
2023-04-28T03:08:44.382Z,2.86
2023-04-28T03:13:47.971Z,2.87
2023-04-28T03:18:51.281Z,2.87
2023-04-28T03:23:55.849Z,2.94
2023-04-28T03:28:59.591Z,3.01
2023-04-28T03:34:04.618Z,3.03
2023-04-28T03:39:07.768Z,3.03
2023-04-28T03:44:11.423Z,3.08
2023-04-28T03:49:22.584Z,3.11
2023-04-28T03:54:34.849Z,3.08
2023-04-28T03:59:38.855Z,3.09
2023-04-28T04:04:42.095Z,3.10
2023-04-28T04:09:45.513Z,3.18
2023-04-28T04:14:48.935Z,3.32
2023-04-28T04:19:52.511Z,3.34
2023-04-28T04:24:55.791Z,3.39
2023-04-28T04:29:58.980Z,3.50
2023-04-28T04:35:03.144Z,3.63
2023-04-28T04:40:07.371Z,3.76
2023-04-28T04:45:14.309Z,3.98
2023-04-28T04:50:21.510Z,4.38
2023-04-28T04:55:24.759Z,5.01
2023-04-28T05:00:28.413Z,5.75
2023-04-28T05:05:34.945Z,6.32
2023-04-28T05:10:46.443Z,7.15
2023-04-28T05:15:50.595Z,7.98
2023-04-28T05:21:04.502Z,8.86
2023-04-28T05:26:09.705Z,9.72
2023-04-28T05:31:13.104Z,10.58
2023-04-28T05:36:17.315Z,11.28
2023-04-28T05:41:22.087Z,11.62
2023-04-28T05:46:30.703Z,11.65
2023-04-28T05:51:35.549Z,11.72
2023-04-28T05:56:39.266Z,12.06
2023-04-28T06:01:43.359Z,12.53
2023-04-28T06:06:47.394Z,12.92
2023-04-28T06:11:50.888Z,13.26
2023-04-28T06:16:54.226Z,13.48
2023-04-28T06:21:57.603Z,13.45
2023-04-28T06:27:00.790Z,13.55
2023-04-28T06:32:05.167Z,13.77
2023-04-28T06:37:08.802Z,14.03
2023-04-28T06:42:18.575Z,14.23
2023-04-28T06:47:29.096Z,14.26
2023-04-28T06:52:38.541Z,14.21
2023-04-28T06:57:42.820Z,14.16
2023-04-28T07:02:47.356Z,14.10
2023-04-28T07:07:50.693Z,14.04
2023-04-28T07:12:53.928Z,14.09
2023-04-28T07:17:57.434Z,14.09
2023-04-28T07:23:00.674Z,13.87
2023-04-28T07:28:04.220Z,13.70
2023-04-28T07:33:10.967Z,13.64
2023-04-28T07:38:14.300Z,13.74
2023-04-28T07:43:17.518Z,13.75
2023-04-28T07:48:20.700Z,13.72
2023-04-28T07:53:44.218Z,13.78
2023-04-28T07:58:47.728Z,13.63
2023-04-28T08:03:51.279Z,13.43
2023-04-28T08:09:14.955Z,13.26
2023-04-28T08:14:18.506Z,12.99
2023-04-28T08:19:22.049Z,12.80
2023-04-28T08:24:25.314Z,12.63
2023-04-28T08:29:29.833Z,12.54
2023-04-28T08:34:34.203Z,12.54
2023-04-28T08:39:37.454Z,12.45
2023-04-28T08:44:40.755Z,12.51
2023-04-28T08:49:45.174Z,12.90
2023-04-28T08:54:49.899Z,13.22
2023-04-28T08:59:53.943Z,13.51
2023-04-28T09:04:57.926Z,13.65
2023-04-28T09:10:27.783Z,13.64
2023-04-28T09:15:41.401Z,13.78
2023-04-28T09:20:49.824Z,13.83
2023-04-28T09:26:04.876Z,14.04
2023-04-28T09:31:24.472Z,14.06
2023-04-28T09:36:30.799Z,13.93
2023-04-28T09:41:44.074Z,13.72
2023-04-28T09:46:48.415Z,13.77
2023-04-28T09:51:57.194Z,13.88
2023-04-28T09:57:01.242Z,13.78
2023-04-28T10:02:22.624Z,13.82
2023-04-28T10:07:35.243Z,13.83
2023-04-28T10:12:49.380Z,13.85
2023-04-28T10:17:54.495Z,13.87
2023-04-28T10:23:35.550Z,13.81
2023-04-28T10:28:46.582Z,13.80
2023-04-28T10:33:50.827Z,13.80
2023-04-28T10:39:12.210Z,13.87
2023-04-28T10:44:34.039Z,13.96
2023-04-28T10:49:58.792Z,13.87
2023-04-28T10:55:40.408Z,13.97
2023-04-28T11:00:48.666Z,14.04
2023-04-28T11:06:26.972Z,14.14
2023-04-28T11:11:33.713Z,14.13
2023-04-28T11:17:01.471Z,14.01
2023-04-28T11:22:15.882Z,14.02
2023-04-28T11:27:27.048Z,14.24
2023-04-28T11:32:32.623Z,14.32
2023-04-28T11:37:36.260Z,14.16
2023-04-28T11:42:50.586Z,14.04
2023-04-28T11:47:53.933Z,13.96
2023-04-28T11:52:57.175Z,13.95
2023-04-28T11:58:25.426Z,13.94
2023-04-28T12:03:28.859Z,14.09
2023-04-28T12:08:32.447Z,14.26
2023-04-28T12:13:36.630Z,14.31
2023-04-28T12:19:00.287Z,14.29
2023-04-28T12:24:15.050Z,14.26
2023-04-28T12:29:41.966Z,14.22
2023-04-28T12:34:47.087Z,14.30
2023-04-28T12:39:50.429Z,14.44
2023-04-28T12:44:56.956Z,14.53
2023-04-28T12:50:00.217Z,14.57
2023-04-28T12:55:04.668Z,14.79
2023-04-28T13:00:08.924Z,14.86
2023-04-28T13:05:12.516Z,14.93
2023-04-28T13:10:16.229Z,14.92
2023-04-28T13:15:19.384Z,14.92
2023-04-28T13:20:23.235Z,15.09
2023-04-28T13:25:26.535Z,15.22
2023-04-28T13:30:29.853Z,15.39
2023-04-28T13:35:39.415Z,15.50
2023-04-28T13:40:54.762Z,15.57
2023-04-28T13:45:58.201Z,15.52
2023-04-28T13:51:01.948Z,15.55
2023-04-28T13:56:06.943Z,15.45
2023-04-28T14:01:10.680Z,15.33
2023-04-28T14:06:14.293Z,15.37
2023-04-28T14:11:17.616Z,15.51
2023-04-28T14:16:23.166Z,15.58
2023-04-28T14:21:26.757Z,15.61
2023-04-28T14:26:30.011Z,15.62
2023-04-28T14:31:34.089Z,15.54
2023-04-28T14:36:42.133Z,15.39
2023-04-28T14:42:06.826Z,15.19
2023-04-28T14:47:15.599Z,15.15
2023-04-28T14:52:19.223Z,15.11
2023-04-28T14:57:22.548Z,15.05
2023-04-28T15:02:29.781Z,15.00
2023-04-28T15:07:33.451Z,14.98
2023-04-28T15:12:37.208Z,14.94
2023-04-28T15:17:40.891Z,14.89
2023-04-28T15:22:44.792Z,14.80
2023-04-28T15:27:48.116Z,14.66
2023-04-28T15:32:54.498Z,14.65
2023-04-28T15:37:58.011Z,14.65
2023-04-28T15:43:01.152Z,14.67
2023-04-28T15:48:06.410Z,14.64
2023-04-28T15:53:09.807Z,14.65
2023-04-28T15:58:12.934Z,14.61
2023-04-28T16:03:17.046Z,14.57
2023-04-28T16:08:22.763Z,14.48
2023-04-28T16:13:27.242Z,14.47
2023-04-28T16:18:31.049Z,14.51
2023-04-28T16:23:43.403Z,14.48
2023-04-28T16:28:46.717Z,14.40
2023-04-28T16:33:50.024Z,14.39
2023-04-28T16:38:53.464Z,14.39
2023-04-28T16:43:56.630Z,14.36
2023-04-28T16:49:00.479Z,14.26
2023-04-28T16:54:03.727Z,14.19
2023-04-28T16:59:07.301Z,14.13
2023-04-28T17:04:10.946Z,14.06
2023-04-28T17:09:14.284Z,13.97
2023-04-28T17:14:18.047Z,13.88
2023-04-28T17:19:21.372Z,13.80
2023-04-28T17:24:24.978Z,13.71
2023-04-28T17:29:31.736Z,13.60
2023-04-28T17:34:52.913Z,13.45
2023-04-28T17:39:56.158Z,13.28
2023-04-28T17:44:59.476Z,13.06
2023-04-28T17:50:03.032Z,12.87
2023-04-28T17:55:06.589Z,12.64
2023-04-28T18:00:12.212Z,12.43
2023-04-28T18:05:17.669Z,12.30
2023-04-28T18:10:21.040Z,12.21
2023-04-28T18:15:25.810Z,12.09
2023-04-28T18:20:29.245Z,11.96
2023-04-28T18:25:33.478Z,11.87
2023-04-28T18:30:39.158Z,11.78
2023-04-28T18:35:42.438Z,11.66
2023-04-28T18:40:45.676Z,11.58
2023-04-28T18:45:49.075Z,11.49
2023-04-28T18:50:54.165Z,11.42
2023-04-28T18:56:17.676Z,11.36
2023-04-28T19:01:20.979Z,11.30
2023-04-28T19:06:53.937Z,11.22
2023-04-28T19:11:57.702Z,11.14
2023-04-28T19:17:01.104Z,11.07
2023-04-28T19:22:04.279Z,10.99
2023-04-28T19:27:07.362Z,10.91
2023-04-28T19:32:12.300Z,10.84
2023-04-28T19:37:15.427Z,10.77
2023-04-28T19:42:19.584Z,10.70
2023-04-28T19:47:43.173Z,10.63
2023-04-28T19:52:46.634Z,10.54
2023-04-28T19:57:50.548Z,10.47
2023-04-28T20:02:54.350Z,10.41
2023-04-28T20:07:57.751Z,10.32
2023-04-28T20:13:21.102Z,10.24
2023-04-28T20:18:24.367Z,10.15
2023-04-28T20:23:29.427Z,10.07
2023-04-28T20:28:44.567Z,10.00
2023-04-28T20:33:54.345Z,9.92
2023-04-28T20:38:57.604Z,9.83
2023-04-28T20:44:01.343Z,9.76
2023-04-28T20:49:05.808Z,9.69
2023-04-28T20:54:09.078Z,9.61
2023-04-28T20:59:12.523Z,9.52
2023-04-28T21:04:16.399Z,9.45
2023-04-28T21:09:20.948Z,9.38
2023-04-28T21:14:24.253Z,9.33
2023-04-28T21:19:27.766Z,9.26
2023-04-28T21:24:31.200Z,9.20
2023-04-28T21:29:34.714Z,9.17
2023-04-28T21:34:37.974Z,9.11
2023-04-28T21:39:41.528Z,9.02
2023-04-28T21:44:45.128Z,8.91
2023-04-28T21:49:48.734Z,8.85
2023-04-28T21:54:52.457Z,8.80
2023-04-28T21:59:56.296Z,8.73
2023-04-28T22:04:59.936Z,8.68
2023-04-28T22:10:17.211Z,8.61
2023-04-28T22:16:03.057Z,8.53
2023-04-28T22:21:27.158Z,8.47
2023-04-28T22:26:30.834Z,8.46
2023-04-28T22:31:57.825Z,8.43
2023-04-28T22:37:01.396Z,8.37
2023-04-28T22:42:05.154Z,8.35
2023-04-28T22:47:08.885Z,8.28
2023-04-28T22:52:12.260Z,8.22
2023-04-28T22:57:15.703Z,8.19
2023-04-28T23:02:23.267Z,8.18
2023-04-28T23:07:47.610Z,8.16
2023-04-28T23:12:50.897Z,8.13
2023-04-28T23:17:54.093Z,8.11
2023-04-28T23:22:58.541Z,8.09
2023-04-28T23:28:01.821Z,8.09
2023-04-28T23:33:05.244Z,8.04
2023-04-28T23:38:08.584Z,7.99
2023-04-28T23:43:13.107Z,7.95
2023-04-28T23:48:16.543Z,7.89
2023-04-28T23:53:19.868Z,7.84
2023-04-28T23:58:23.346Z,7.78
